sensor_id;sensor_type;location;lat;lon;timestamp;P1;durP1;ratioP1;P2;durP2;ratioP2
77544;SDS011;66672;50.328;7.610;2023-02-28T00:00:10;2.40;;;1.40;;
77544;SDS011;66672;50.328;7.610;2023-02-28T00:02:37;4.90;;;1.27;;
77544;SDS011;66672;50.328;7.610;2023-02-28T00:05:04;4.23;;;1.37;;
77544;SDS011;66672;50.328;7.610;2023-02-28T00:07:30;6.30;;;1.70;;
77544;SDS011;66672;50.328;7.610;2023-02-28T00:09:56;5.87;;;1.70;;
77544;SDS011;66672;50.328;7.610;2023-02-28T00:12:21;5.00;;;1.50;;
77544;SDS011;66672;50.328;7.610;2023-02-28T00:14:47;5.23;;;1.40;;
77544;SDS011;66672;50.328;7.610;2023-02-28T00:17:13;3.27;;;1.77;;
77544;SDS011;66672;50.328;7.610;2023-02-28T00:19:38;6.73;;;2.10;;
77544;SDS011;66672;50.328;7.610;2023-02-28T00:22:04;4.70;;;1.80;;
77544;SDS011;66672;50.328;7.610;2023-02-28T00:24:29;4.17;;;1.67;;
77544;SDS011;66672;50.328;7.610;2023-02-28T00:26:54;5.13;;;2.10;;
77544;SDS011;66672;50.328;7.610;2023-02-28T00:29:19;5.23;;;2.20;;
77544;SDS011;66672;50.328;7.610;2023-02-28T00:31:45;3.37;;;1.80;;
77544;SDS011;66672;50.328;7.610;2023-02-28T00:34:10;5.20;;;1.80;;
77544;SDS011;66672;50.328;7.610;2023-02-28T00:36:35;4.60;;;1.80;;
77544;SDS011;66672;50.328;7.610;2023-02-28T00:39:01;3.13;;;1.43;;
77544;SDS011;66672;50.328;7.610;2023-02-28T00:41:26;5.20;;;2.30;;
77544;SDS011;66672;50.328;7.610;2023-02-28T00:43:51;8.70;;;2.20;;
77544;SDS011;66672;50.328;7.610;2023-02-28T00:46:17;3.80;;;1.80;;
77544;SDS011;66672;50.328;7.610;2023-02-28T00:48:42;3.97;;;2.10;;
77544;SDS011;66672;50.328;7.610;2023-02-28T00:51:08;4.13;;;1.83;;
77544;SDS011;66672;50.328;7.610;2023-02-28T00:53:33;4.07;;;1.90;;
77544;SDS011;66672;50.328;7.610;2023-02-28T00:55:59;4.00;;;1.80;;
77544;SDS011;66672;50.328;7.610;2023-02-28T00:58:24;5.47;;;1.70;;
77544;SDS011;66672;50.328;7.610;2023-02-28T01:00:50;3.97;;;2.07;;
77544;SDS011;66672;50.328;7.610;2023-02-28T01:03:17;6.03;;;2.37;;
77544;SDS011;66672;50.328;7.610;2023-02-28T01:05:43;6.63;;;2.30;;
77544;SDS011;66672;50.328;7.610;2023-02-28T01:08:09;5.80;;;1.87;;
77544;SDS011;66672;50.328;7.610;2023-02-28T01:10:34;7.00;;;2.23;;
77544;SDS011;66672;50.328;7.610;2023-02-28T01:13:01;6.00;;;2.20;;
77544;SDS011;66672;50.328;7.610;2023-02-28T01:15:26;3.83;;;1.80;;
77544;SDS011;66672;50.328;7.610;2023-02-28T01:17:52;6.53;;;2.63;;
77544;SDS011;66672;50.328;7.610;2023-02-28T01:20:17;3.23;;;1.70;;
77544;SDS011;66672;50.328;7.610;2023-02-28T01:22:43;7.20;;;2.43;;
77544;SDS011;66672;50.328;7.610;2023-02-28T01:25:08;5.73;;;2.60;;
77544;SDS011;66672;50.328;7.610;2023-02-28T01:27:33;6.90;;;2.73;;
77544;SDS011;66672;50.328;7.610;2023-02-28T01:29:59;4.97;;;2.47;;
77544;SDS011;66672;50.328;7.610;2023-02-28T01:32:24;7.57;;;3.17;;
77544;SDS011;66672;50.328;7.610;2023-02-28T01:34:49;7.13;;;3.27;;
77544;SDS011;66672;50.328;7.610;2023-02-28T01:37:15;5.13;;;2.53;;
77544;SDS011;66672;50.328;7.610;2023-02-28T01:39:40;4.90;;;2.20;;
77544;SDS011;66672;50.328;7.610;2023-02-28T01:42:05;6.67;;;2.73;;
77544;SDS011;66672;50.328;7.610;2023-02-28T01:47:25;9.20;;;3.38;;
77544;SDS011;66672;50.328;7.610;2023-02-28T01:49:56;4.93;;;2.40;;
77544;SDS011;66672;50.328;7.610;2023-02-28T01:52:23;4.87;;;3.00;;
77544;SDS011;66672;50.328;7.610;2023-02-28T01:54:51;7.00;;;2.73;;
77544;SDS011;66672;50.328;7.610;2023-02-28T01:57:19;6.37;;;2.70;;
77544;SDS011;66672;50.328;7.610;2023-02-28T01:59:56;5.37;;;2.67;;
77544;SDS011;66672;50.328;7.610;2023-02-28T02:02:25;5.93;;;2.43;;
77544;SDS011;66672;50.328;7.610;2023-02-28T02:07:28;4.77;;;2.17;;
77544;SDS011;66672;50.328;7.610;2023-02-28T02:09:59;8.33;;;2.53;;
77544;SDS011;66672;50.328;7.610;2023-02-28T02:15:26;5.00;;;2.60;;
77544;SDS011;66672;50.328;7.610;2023-02-28T02:18:29;5.30;;;2.67;;
77544;SDS011;66672;50.328;7.610;2023-02-28T02:24:11;4.93;;;2.53;;
77544;SDS011;66672;50.328;7.610;2023-02-28T02:32:16;7.30;;;3.20;;
77544;SDS011;66672;50.328;7.610;2023-02-28T02:38:05;6.20;;;2.97;;
77544;SDS011;66672;50.328;7.610;2023-02-28T02:40:49;5.10;;;2.87;;
77544;SDS011;66672;50.328;7.610;2023-02-28T02:43:22;6.23;;;2.70;;
77544;SDS011;66672;50.328;7.610;2023-02-28T02:45:59;8.25;;;2.75;;
77544;SDS011;66672;50.328;7.610;2023-02-28T02:48:31;6.50;;;3.30;;
77544;SDS011;66672;50.328;7.610;2023-02-28T02:51:00;4.87;;;2.63;;
77544;SDS011;66672;50.328;7.610;2023-02-28T02:53:35;5.93;;;3.03;;
77544;SDS011;66672;50.328;7.610;2023-02-28T02:56:06;6.07;;;3.40;;
77544;SDS011;66672;50.328;7.610;2023-02-28T02:58:34;7.57;;;3.27;;
77544;SDS011;66672;50.328;7.610;2023-02-28T03:01:07;6.30;;;3.17;;
77544;SDS011;66672;50.328;7.610;2023-02-28T03:03:37;6.03;;;2.87;;
77544;SDS011;66672;50.328;7.610;2023-02-28T03:06:03;6.80;;;2.90;;
77544;SDS011;66672;50.328;7.610;2023-02-28T03:08:33;6.00;;;3.13;;
77544;SDS011;66672;50.328;7.610;2023-02-28T03:11:01;5.93;;;2.87;;
77544;SDS011;66672;50.328;7.610;2023-02-28T03:19:18;6.37;;;2.80;;
77544;SDS011;66672;50.328;7.610;2023-02-28T03:24:55;4.33;;;2.50;;
77544;SDS011;66672;50.328;7.610;2023-02-28T03:27:44;5.20;;;2.63;;
77544;SDS011;66672;50.328;7.610;2023-02-28T03:30:23;6.37;;;2.80;;
77544;SDS011;66672;50.328;7.610;2023-02-28T03:32:58;7.00;;;2.70;;
77544;SDS011;66672;50.328;7.610;2023-02-28T03:35:31;7.47;;;2.93;;
77544;SDS011;66672;50.328;7.610;2023-02-28T03:38:10;5.70;;;2.77;;
77544;SDS011;66672;50.328;7.610;2023-02-28T03:40:48;5.93;;;2.70;;
77544;SDS011;66672;50.328;7.610;2023-02-28T03:43:20;6.13;;;3.00;;
77544;SDS011;66672;50.328;7.610;2023-02-28T03:45:50;6.30;;;2.50;;
77544;SDS011;66672;50.328;7.610;2023-02-28T03:48:19;4.90;;;2.53;;
77544;SDS011;66672;50.328;7.610;2023-02-28T03:50:55;5.93;;;2.60;;
77544;SDS011;66672;50.328;7.610;2023-02-28T03:53:37;6.10;;;2.20;;
77544;SDS011;66672;50.328;7.610;2023-02-28T03:56:20;6.55;;;2.33;;
77544;SDS011;66672;50.328;7.610;2023-02-28T04:01:37;6.30;;;2.60;;
77544;SDS011;66672;50.328;7.610;2023-02-28T04:04:08;8.23;;;2.80;;
77544;SDS011;66672;50.328;7.610;2023-02-28T04:06:36;10.00;;;2.50;;
77544;SDS011;66672;50.328;7.610;2023-02-28T04:09:02;4.40;;;2.50;;
77544;SDS011;66672;50.328;7.610;2023-02-28T04:13:56;6.37;;;2.97;;
77544;SDS011;66672;50.328;7.610;2023-02-28T04:16:22;5.80;;;2.67;;
77544;SDS011;66672;50.328;7.610;2023-02-28T04:18:47;5.17;;;2.90;;
77544;SDS011;66672;50.328;7.610;2023-02-28T04:21:12;5.33;;;2.60;;
77544;SDS011;66672;50.328;7.610;2023-02-28T04:23:38;4.90;;;2.67;;
77544;SDS011;66672;50.328;7.610;2023-02-28T04:26:03;6.73;;;2.70;;
77544;SDS011;66672;50.328;7.610;2023-02-28T04:28:30;6.17;;;2.80;;
77544;SDS011;66672;50.328;7.610;2023-02-28T04:31:00;8.73;;;3.20;;
77544;SDS011;66672;50.328;7.610;2023-02-28T04:33:28;5.20;;;2.27;;
77544;SDS011;66672;50.328;7.610;2023-02-28T04:36:07;5.07;;;2.60;;
77544;SDS011;66672;50.328;7.610;2023-02-28T04:38:34;6.27;;;2.73;;
77544;SDS011;66672;50.328;7.610;2023-02-28T04:41:01;5.37;;;2.37;;
77544;SDS011;66672;50.328;7.610;2023-02-28T04:43:27;4.97;;;2.50;;
77544;SDS011;66672;50.328;7.610;2023-02-28T04:45:53;4.90;;;2.40;;
77544;SDS011;66672;50.328;7.610;2023-02-28T04:48:22;5.70;;;2.73;;
77544;SDS011;66672;50.328;7.610;2023-02-28T04:50:52;6.50;;;3.07;;
77544;SDS011;66672;50.328;7.610;2023-02-28T04:53:17;8.53;;;3.43;;
77544;SDS011;66672;50.328;7.610;2023-02-28T04:55:43;5.17;;;2.90;;
77544;SDS011;66672;50.328;7.610;2023-02-28T04:58:09;5.50;;;2.50;;
77544;SDS011;66672;50.328;7.610;2023-02-28T05:00:34;5.77;;;3.00;;
77544;SDS011;66672;50.328;7.610;2023-02-28T05:03:00;6.83;;;2.70;;
77544;SDS011;66672;50.328;7.610;2023-02-28T05:05:26;10.77;;;4.60;;
77544;SDS011;66672;50.328;7.610;2023-02-28T05:07:51;15.60;;;7.90;;
77544;SDS011;66672;50.328;7.610;2023-02-28T05:10:18;11.90;;;5.70;;
77544;SDS011;66672;50.328;7.610;2023-02-28T05:12:44;4.60;;;2.40;;
77544;SDS011;66672;50.328;7.610;2023-02-28T05:15:12;5.87;;;2.77;;
77544;SDS011;66672;50.328;7.610;2023-02-28T05:17:39;6.30;;;3.13;;
77544;SDS011;66672;50.328;7.610;2023-02-28T05:20:04;6.93;;;3.83;;
77544;SDS011;66672;50.328;7.610;2023-02-28T05:22:30;6.97;;;2.90;;
77544;SDS011;66672;50.328;7.610;2023-02-28T05:24:56;6.33;;;2.87;;
77544;SDS011;66672;50.328;7.610;2023-02-28T05:27:22;6.27;;;2.93;;
77544;SDS011;66672;50.328;7.610;2023-02-28T05:29:47;7.50;;;2.80;;
77544;SDS011;66672;50.328;7.610;2023-02-28T05:32:13;4.53;;;2.50;;
77544;SDS011;66672;50.328;7.610;2023-02-28T05:34:38;5.10;;;2.47;;
77544;SDS011;66672;50.328;7.610;2023-02-28T05:37:04;6.50;;;2.53;;
77544;SDS011;66672;50.328;7.610;2023-02-28T05:39:30;8.30;;;3.00;;
77544;SDS011;66672;50.328;7.610;2023-02-28T05:41:56;6.47;;;3.10;;
77544;SDS011;66672;50.328;7.610;2023-02-28T05:44:21;5.33;;;2.67;;
77544;SDS011;66672;50.328;7.610;2023-02-28T05:46:46;5.43;;;2.80;;
77544;SDS011;66672;50.328;7.610;2023-02-28T05:49:12;6.83;;;3.30;;
77544;SDS011;66672;50.328;7.610;2023-02-28T05:51:37;6.77;;;2.73;;
77544;SDS011;66672;50.328;7.610;2023-02-28T05:54:04;6.03;;;3.37;;
77544;SDS011;66672;50.328;7.610;2023-02-28T05:56:31;7.53;;;3.67;;
77544;SDS011;66672;50.328;7.610;2023-02-28T05:58:57;5.77;;;2.60;;
77544;SDS011;66672;50.328;7.610;2023-02-28T06:01:35;7.50;;;3.23;;
77544;SDS011;66672;50.328;7.610;2023-02-28T06:04:03;6.50;;;2.43;;
77544;SDS011;66672;50.328;7.610;2023-02-28T06:06:30;7.03;;;2.80;;
77544;SDS011;66672;50.328;7.610;2023-02-28T06:08:56;5.90;;;2.53;;
77544;SDS011;66672;50.328;7.610;2023-02-28T06:11:22;6.27;;;3.03;;
77544;SDS011;66672;50.328;7.610;2023-02-28T06:13:53;6.47;;;2.43;;
77544;SDS011;66672;50.328;7.610;2023-02-28T06:16:20;4.67;;;2.50;;
77544;SDS011;66672;50.328;7.610;2023-02-28T06:18:45;5.37;;;3.03;;
77544;SDS011;66672;50.328;7.610;2023-02-28T06:21:11;6.23;;;2.80;;
77544;SDS011;66672;50.328;7.610;2023-02-28T06:23:37;5.47;;;2.70;;
77544;SDS011;66672;50.328;7.610;2023-02-28T06:26:03;6.37;;;2.87;;
77544;SDS011;66672;50.328;7.610;2023-02-28T06:28:28;7.03;;;2.87;;
77544;SDS011;66672;50.328;7.610;2023-02-28T06:30:54;7.13;;;3.20;;
77544;SDS011;66672;50.328;7.610;2023-02-28T06:33:19;5.47;;;2.83;;
77544;SDS011;66672;50.328;7.610;2023-02-28T06:35:46;6.70;;;2.70;;
77544;SDS011;66672;50.328;7.610;2023-02-28T06:38:12;5.80;;;3.20;;
77544;SDS011;66672;50.328;7.610;2023-02-28T06:40:37;5.53;;;2.90;;
77544;SDS011;66672;50.328;7.610;2023-02-28T06:43:02;7.27;;;3.40;;
77544;SDS011;66672;50.328;7.610;2023-02-28T06:45:28;5.40;;;2.83;;
77544;SDS011;66672;50.328;7.610;2023-02-28T06:47:53;5.97;;;2.93;;
77544;SDS011;66672;50.328;7.610;2023-02-28T06:50:19;6.10;;;2.93;;
77544;SDS011;66672;50.328;7.610;2023-02-28T06:52:45;6.80;;;3.40;;
77544;SDS011;66672;50.328;7.610;2023-02-28T06:55:10;7.30;;;3.80;;
77544;SDS011;66672;50.328;7.610;2023-02-28T06:57:36;8.07;;;3.47;;
77544;SDS011;66672;50.328;7.610;2023-02-28T07:00:06;5.53;;;3.00;;
77544;SDS011;66672;50.328;7.610;2023-02-28T07:02:33;7.37;;;3.47;;
77544;SDS011;66672;50.328;7.610;2023-02-28T07:05:00;6.33;;;3.23;;
77544;SDS011;66672;50.328;7.610;2023-02-28T07:07:25;6.43;;;3.37;;
77544;SDS011;66672;50.328;7.610;2023-02-28T07:09:50;7.23;;;3.60;;
77544;SDS011;66672;50.328;7.610;2023-02-28T07:12:15;7.13;;;3.53;;
77544;SDS011;66672;50.328;7.610;2023-02-28T07:14:41;6.27;;;3.70;;
77544;SDS011;66672;50.328;7.610;2023-02-28T07:17:07;6.20;;;3.37;;
77544;SDS011;66672;50.328;7.610;2023-02-28T07:19:33;7.23;;;3.30;;
77544;SDS011;66672;50.328;7.610;2023-02-28T07:21:59;7.80;;;3.70;;
77544;SDS011;66672;50.328;7.610;2023-02-28T07:24:24;8.70;;;3.30;;
77544;SDS011;66672;50.328;7.610;2023-02-28T07:26:53;6.73;;;3.47;;
77544;SDS011;66672;50.328;7.610;2023-02-28T07:29:18;8.47;;;3.90;;
77544;SDS011;66672;50.328;7.610;2023-02-28T07:31:44;8.97;;;3.70;;
77544;SDS011;66672;50.328;7.610;2023-02-28T07:34:09;8.67;;;4.00;;
77544;SDS011;66672;50.328;7.610;2023-02-28T07:36:34;6.80;;;3.80;;
77544;SDS011;66672;50.328;7.610;2023-02-28T07:39:00;9.20;;;3.73;;
77544;SDS011;66672;50.328;7.610;2023-02-28T07:41:25;7.10;;;3.80;;
77544;SDS011;66672;50.328;7.610;2023-02-28T07:43:53;7.30;;;3.83;;
77544;SDS011;66672;50.328;7.610;2023-02-28T07:46:20;7.33;;;5.03;;
77544;SDS011;66672;50.328;7.610;2023-02-28T07:48:46;8.27;;;3.33;;
77544;SDS011;66672;50.328;7.610;2023-02-28T07:51:11;6.43;;;3.70;;
77544;SDS011;66672;50.328;7.610;2023-02-28T07:53:37;8.20;;;4.37;;
77544;SDS011;66672;50.328;7.610;2023-02-28T07:56:02;8.37;;;4.13;;
77544;SDS011;66672;50.328;7.610;2023-02-28T07:58:28;8.30;;;3.80;;
77544;SDS011;66672;50.328;7.610;2023-02-28T08:00:55;8.80;;;3.40;;
77544;SDS011;66672;50.328;7.610;2023-02-28T08:03:21;8.03;;;3.43;;
77544;SDS011;66672;50.328;7.610;2023-02-28T08:05:48;9.47;;;3.77;;
77544;SDS011;66672;50.328;7.610;2023-02-28T08:08:14;12.93;;;4.37;;
77544;SDS011;66672;50.328;7.610;2023-02-28T08:10:40;9.07;;;3.80;;
77544;SDS011;66672;50.328;7.610;2023-02-28T08:13:06;7.90;;;3.47;;
77544;SDS011;66672;50.328;7.610;2023-02-28T08:15:32;8.53;;;4.07;;
77544;SDS011;66672;50.328;7.610;2023-02-28T08:17:57;6.43;;;2.77;;
77544;SDS011;66672;50.328;7.610;2023-02-28T08:20:23;9.40;;;3.67;;
77544;SDS011;66672;50.328;7.610;2023-02-28T08:22:49;11.13;;;4.00;;
77544;SDS011;66672;50.328;7.610;2023-02-28T08:25:15;8.47;;;3.83;;
77544;SDS011;66672;50.328;7.610;2023-02-28T08:27:40;9.53;;;3.93;;
77544;SDS011;66672;50.328;7.610;2023-02-28T08:30:06;7.73;;;3.57;;
77544;SDS011;66672;50.328;7.610;2023-02-28T08:32:32;8.23;;;3.80;;
77544;SDS011;66672;50.328;7.610;2023-02-28T08:34:58;7.63;;;3.40;;
77544;SDS011;66672;50.328;7.610;2023-02-28T08:37:24;9.47;;;3.03;;
77544;SDS011;66672;50.328;7.610;2023-02-28T08:39:50;7.40;;;2.77;;
77544;SDS011;66672;50.328;7.610;2023-02-28T08:42:15;6.30;;;2.97;;
77544;SDS011;66672;50.328;7.610;2023-02-28T08:44:40;5.73;;;2.50;;
77544;SDS011;66672;50.328;7.610;2023-02-28T08:47:06;5.30;;;2.47;;
77544;SDS011;66672;50.328;7.610;2023-02-28T08:49:31;4.77;;;2.23;;
77544;SDS011;66672;50.328;7.610;2023-02-28T08:51:57;6.63;;;2.60;;
77544;SDS011;66672;50.328;7.610;2023-02-28T08:54:23;6.47;;;2.57;;
77544;SDS011;66672;50.328;7.610;2023-02-28T08:56:49;6.37;;;2.40;;
77544;SDS011;66672;50.328;7.610;2023-02-28T08:59:14;7.67;;;2.87;;
77544;SDS011;66672;50.328;7.610;2023-02-28T09:01:40;5.50;;;2.73;;
77544;SDS011;66672;50.328;7.610;2023-02-28T09:04:06;6.70;;;3.07;;
77544;SDS011;66672;50.328;7.610;2023-02-28T09:06:33;4.90;;;2.03;;
77544;SDS011;66672;50.328;7.610;2023-02-28T09:08:59;6.50;;;2.67;;
77544;SDS011;66672;50.328;7.610;2023-02-28T09:11:26;5.20;;;2.60;;
77544;SDS011;66672;50.328;7.610;2023-02-28T09:13:51;4.93;;;2.40;;
77544;SDS011;66672;50.328;7.610;2023-02-28T09:16:17;5.00;;;2.30;;
77544;SDS011;66672;50.328;7.610;2023-02-28T09:18:42;5.80;;;2.87;;
77544;SDS011;66672;50.328;7.610;2023-02-28T09:21:09;6.00;;;2.70;;
77544;SDS011;66672;50.328;7.610;2023-02-28T09:23:40;5.33;;;2.30;;
77544;SDS011;66672;50.328;7.610;2023-02-28T09:26:06;7.13;;;2.83;;
77544;SDS011;66672;50.328;7.610;2023-02-28T09:28:32;7.23;;;2.37;;
77544;SDS011;66672;50.328;7.610;2023-02-28T09:30:58;6.37;;;3.03;;
77544;SDS011;66672;50.328;7.610;2023-02-28T09:33:23;10.33;;;2.80;;
77544;SDS011;66672;50.328;7.610;2023-02-28T09:35:50;5.67;;;2.90;;
77544;SDS011;66672;50.328;7.610;2023-02-28T09:38:22;6.30;;;3.10;;
77544;SDS011;66672;50.328;7.610;2023-02-28T09:40:50;5.40;;;2.47;;
77544;SDS011;66672;50.328;7.610;2023-02-28T09:43:20;5.17;;;2.73;;
77544;SDS011;66672;50.328;7.610;2023-02-28T09:45:49;4.80;;;2.50;;
77544;SDS011;66672;50.328;7.610;2023-02-28T09:48:20;5.03;;;2.43;;
77544;SDS011;66672;50.328;7.610;2023-02-28T09:51:00;5.80;;;2.50;;
77544;SDS011;66672;50.328;7.610;2023-02-28T09:53:30;6.67;;;2.90;;
77544;SDS011;66672;50.328;7.610;2023-02-28T09:56:01;6.47;;;2.30;;
77544;SDS011;66672;50.328;7.610;2023-02-28T09:58:35;5.03;;;2.50;;
77544;SDS011;66672;50.328;7.610;2023-02-28T10:01:11;5.60;;;2.73;;
77544;SDS011;66672;50.328;7.610;2023-02-28T10:03:56;5.63;;;2.40;;
77544;SDS011;66672;50.328;7.610;2023-02-28T10:06:28;6.27;;;2.57;;
77544;SDS011;66672;50.328;7.610;2023-02-28T10:11:28;3.80;;;2.03;;
77544;SDS011;66672;50.328;7.610;2023-02-28T10:14:04;6.57;;;3.40;;
77544;SDS011;66672;50.328;7.610;2023-02-28T10:16:54;9.20;;;2.43;;
77544;SDS011;66672;50.328;7.610;2023-02-28T10:24:41;5.40;;;2.83;;
77544;SDS011;66672;50.328;7.610;2023-02-28T10:27:18;5.03;;;2.57;;
77544;SDS011;66672;50.328;7.610;2023-02-28T10:29:55;4.90;;;2.57;;
77544;SDS011;66672;50.328;7.610;2023-02-28T10:32:27;5.63;;;3.07;;
77544;SDS011;66672;50.328;7.610;2023-02-28T10:34:59;5.33;;;2.40;;
77544;SDS011;66672;50.328;7.610;2023-02-28T10:37:31;4.53;;;2.30;;
77544;SDS011;66672;50.328;7.610;2023-02-28T10:39:57;5.80;;;2.83;;
77544;SDS011;66672;50.328;7.610;2023-02-28T10:42:26;4.90;;;2.27;;
77544;SDS011;66672;50.328;7.610;2023-02-28T10:45:28;5.63;;;2.87;;
77544;SDS011;66672;50.328;7.610;2023-02-28T10:50:30;4.53;;;2.37;;
77544;SDS011;66672;50.328;7.610;2023-02-28T10:53:13;5.60;;;2.53;;
77544;SDS011;66672;50.328;7.610;2023-02-28T10:56:34;5.93;;;2.70;;
77544;SDS011;66672;50.328;7.610;2023-02-28T10:58:56;6.80;;;2.63;;
77544;SDS011;66672;50.328;7.610;2023-02-28T11:01:34;5.23;;;2.77;;
77544;SDS011;66672;50.328;7.610;2023-02-28T11:04:02;5.17;;;2.47;;
77544;SDS011;66672;50.328;7.610;2023-02-28T11:06:29;5.03;;;2.90;;
77544;SDS011;66672;50.328;7.610;2023-02-28T11:09:18;5.27;;;2.63;;
77544;SDS011;66672;50.328;7.610;2023-02-28T11:11:51;5.50;;;2.90;;
77544;SDS011;66672;50.328;7.610;2023-02-28T11:14:21;5.33;;;2.63;;
77544;SDS011;66672;50.328;7.610;2023-02-28T11:16:50;5.90;;;3.10;;
77544;SDS011;66672;50.328;7.610;2023-02-28T11:19:18;5.00;;;2.70;;
77544;SDS011;66672;50.328;7.610;2023-02-28T11:21:49;5.53;;;2.83;;
77544;SDS011;66672;50.328;7.610;2023-02-28T11:24:28;7.53;;;3.27;;
77544;SDS011;66672;50.328;7.610;2023-02-28T11:26:58;5.33;;;3.03;;
77544;SDS011;66672;50.328;7.610;2023-02-28T11:29:25;4.83;;;2.60;;
77544;SDS011;66672;50.328;7.610;2023-02-28T11:32:03;5.77;;;3.03;;
77544;SDS011;66672;50.328;7.610;2023-02-28T11:34:38;6.50;;;3.00;;
77544;SDS011;66672;50.328;7.610;2023-02-28T11:37:05;6.60;;;3.40;;
77544;SDS011;66672;50.328;7.610;2023-02-28T11:39:36;6.47;;;3.03;;
77544;SDS011;66672;50.328;7.610;2023-02-28T11:44:45;5.90;;;3.20;;
77544;SDS011;66672;50.328;7.610;2023-02-28T11:50:20;8.20;;;3.50;;
77544;SDS011;66672;50.328;7.610;2023-02-28T11:55:49;5.53;;;3.15;;
77544;SDS011;66672;50.328;7.610;2023-02-28T12:17:32;5.77;;;3.60;;
77544;SDS011;66672;50.328;7.610;2023-02-28T12:20:24;5.87;;;3.53;;
77544;SDS011;66672;50.328;7.610;2023-02-28T12:23:19;5.90;;;3.67;;
77544;SDS011;66672;50.328;7.610;2023-02-28T12:26:26;5.78;;;3.15;;
77544;SDS011;66672;50.328;7.610;2023-02-28T12:34:58;7.55;;;3.30;;
77544;SDS011;66672;50.328;7.610;2023-02-28T12:40:02;6.13;;;3.08;;
77544;SDS011;66672;50.328;7.610;2023-02-28T12:42:34;5.80;;;3.22;;
77544;SDS011;66672;50.328;7.610;2023-02-28T12:45:05;6.22;;;3.30;;
77544;SDS011;66672;50.328;7.610;2023-02-28T12:47:38;8.10;;;3.92;;
77544;SDS011;66672;50.328;7.610;2023-02-28T12:50:08;5.53;;;3.30;;
77544;SDS011;66672;50.328;7.610;2023-02-28T13:03:43;6.05;;;3.50;;
77544;SDS011;66672;50.328;7.610;2023-02-28T13:06:33;6.05;;;3.20;;
77544;SDS011;66672;50.328;7.610;2023-02-28T13:09:13;6.43;;;3.78;;
77544;SDS011;66672;50.328;7.610;2023-02-28T13:14:24;5.70;;;3.45;;
77544;SDS011;66672;50.328;7.610;2023-02-28T13:17:09;6.22;;;3.47;;
77544;SDS011;66672;50.328;7.610;2023-02-28T13:19:36;5.82;;;3.85;;
77544;SDS011;66672;50.328;7.610;2023-02-28T13:22:05;5.25;;;3.42;;
77544;SDS011;66672;50.328;7.610;2023-02-28T13:29:50;5.85;;;3.30;;
77544;SDS011;66672;50.328;7.610;2023-02-28T13:32:28;6.15;;;3.83;;
77544;SDS011;66672;50.328;7.610;2023-02-28T13:50:15;7.20;;;3.50;;
77544;SDS011;66672;50.328;7.610;2023-02-28T13:53:31;6.18;;;3.70;;
77544;SDS011;66672;50.328;7.610;2023-02-28T14:06:17;7.22;;;4.13;;
77544;SDS011;66672;50.328;7.610;2023-02-28T14:08:54;6.82;;;3.97;;
77544;SDS011;66672;50.328;7.610;2023-02-28T14:11:33;7.25;;;4.20;;
77544;SDS011;66672;50.328;7.610;2023-02-28T14:14:00;6.35;;;4.03;;
77544;SDS011;66672;50.328;7.610;2023-02-28T14:16:27;7.55;;;3.63;;
77544;SDS011;66672;50.328;7.610;2023-02-28T14:19:09;7.35;;;4.13;;
77544;SDS011;66672;50.328;7.610;2023-02-28T14:21:39;6.53;;;4.45;;
77544;SDS011;66672;50.328;7.610;2023-02-28T14:27:02;5.97;;;3.90;;
77544;SDS011;66672;50.328;7.610;2023-02-28T14:38:13;6.93;;;3.97;;
77544;SDS011;66672;50.328;7.610;2023-02-28T14:40:43;7.95;;;4.28;;
77544;SDS011;66672;50.328;7.610;2023-02-28T14:43:21;6.63;;;3.70;;
77544;SDS011;66672;50.328;7.610;2023-02-28T14:45:50;5.90;;;3.63;;
77544;SDS011;66672;50.328;7.610;2023-02-28T14:48:19;6.88;;;3.88;;
77544;SDS011;66672;50.328;7.610;2023-02-28T14:50:51;7.00;;;4.03;;
77544;SDS011;66672;50.328;7.610;2023-02-28T14:53:18;7.15;;;4.18;;
77544;SDS011;66672;50.328;7.610;2023-02-28T14:55:46;7.82;;;4.00;;
77544;SDS011;66672;50.328;7.610;2023-02-28T14:58:23;7.05;;;3.70;;
77544;SDS011;66672;50.328;7.610;2023-02-28T15:00:51;6.80;;;3.88;;
77544;SDS011;66672;50.328;7.610;2023-02-28T15:05:58;6.60;;;4.03;;
77544;SDS011;66672;50.328;7.610;2023-02-28T15:08:25;6.28;;;3.50;;
77544;SDS011;66672;50.328;7.610;2023-02-28T15:13:50;7.55;;;4.43;;
77544;SDS011;66672;50.328;7.610;2023-02-28T15:16:19;6.97;;;3.55;;
77544;SDS011;66672;50.328;7.610;2023-02-28T15:18:54;7.63;;;3.55;;
77544;SDS011;66672;50.328;7.610;2023-02-28T15:23:54;6.63;;;3.97;;
77544;SDS011;66672;50.328;7.610;2023-02-28T15:26:25;5.95;;;3.30;;
77544;SDS011;66672;50.328;7.610;2023-02-28T15:28:58;6.25;;;3.90;;
77544;SDS011;66672;50.328;7.610;2023-02-28T15:31:29;6.00;;;3.80;;
77544;SDS011;66672;50.328;7.610;2023-02-28T15:33:58;7.10;;;4.03;;
77544;SDS011;66672;50.328;7.610;2023-02-28T15:36:30;7.93;;;3.90;;
77544;SDS011;66672;50.328;7.610;2023-02-28T15:38:58;7.55;;;3.40;;
77544;SDS011;66672;50.328;7.610;2023-02-28T15:41:25;7.95;;;4.07;;
77544;SDS011;66672;50.328;7.610;2023-02-28T15:44:26;7.25;;;4.00;;
77544;SDS011;66672;50.328;7.610;2023-02-28T15:49:38;7.45;;;4.30;;
77544;SDS011;66672;50.328;7.610;2023-02-28T15:52:09;6.20;;;3.60;;
77544;SDS011;66672;50.328;7.610;2023-02-28T15:54:40;6.88;;;3.65;;
77544;SDS011;66672;50.328;7.610;2023-02-28T15:57:10;9.38;;;3.10;;
77544;SDS011;66672;50.328;7.610;2023-02-28T15:59:42;5.68;;;3.35;;
77544;SDS011;66672;50.328;7.610;2023-02-28T16:02:15;7.15;;;3.60;;
77544;SDS011;66672;50.328;7.610;2023-02-28T16:07:53;8.90;;;4.20;;
77544;SDS011;66672;50.328;7.610;2023-02-28T16:10:20;6.75;;;3.53;;
77544;SDS011;66672;50.328;7.610;2023-02-28T16:12:48;6.60;;;3.60;;
77544;SDS011;66672;50.328;7.610;2023-02-28T16:15:35;5.88;;;3.20;;
77544;SDS011;66672;50.328;7.610;2023-02-28T16:18:07;6.97;;;3.70;;
77544;SDS011;66672;50.328;7.610;2023-02-28T16:20:35;7.07;;;3.83;;
77544;SDS011;66672;50.328;7.610;2023-02-28T16:23:00;6.82;;;3.80;;
77544;SDS011;66672;50.328;7.610;2023-02-28T16:25:35;7.13;;;3.60;;
77544;SDS011;66672;50.328;7.610;2023-02-28T16:28:05;7.53;;;3.83;;
77544;SDS011;66672;50.328;7.610;2023-02-28T16:30:37;7.13;;;3.65;;
77544;SDS011;66672;50.328;7.610;2023-02-28T16:33:02;6.75;;;3.45;;
77544;SDS011;66672;50.328;7.610;2023-02-28T16:35:28;7.77;;;3.23;;
77544;SDS011;66672;50.328;7.610;2023-02-28T16:37:54;7.95;;;3.78;;
77544;SDS011;66672;50.328;7.610;2023-02-28T16:40:24;6.45;;;3.60;;
77544;SDS011;66672;50.328;7.610;2023-02-28T16:42:55;5.97;;;3.13;;
77544;SDS011;66672;50.328;7.610;2023-02-28T16:45:25;6.83;;;3.43;;
77544;SDS011;66672;50.328;7.610;2023-02-28T16:47:55;6.57;;;3.70;;
77544;SDS011;66672;50.328;7.610;2023-02-28T16:50:23;10.68;;;3.78;;
77544;SDS011;66672;50.328;7.610;2023-02-28T16:52:51;8.43;;;3.70;;
77544;SDS011;66672;50.328;7.610;2023-02-28T16:55:19;6.87;;;3.23;;
77544;SDS011;66672;50.328;7.610;2023-02-28T16:57:50;6.93;;;3.83;;
77544;SDS011;66672;50.328;7.610;2023-02-28T17:00:17;5.60;;;3.37;;
77544;SDS011;66672;50.328;7.610;2023-02-28T17:02:43;6.10;;;3.47;;
77544;SDS011;66672;50.328;7.610;2023-02-28T17:05:10;6.50;;;3.83;;
77544;SDS011;66672;50.328;7.610;2023-02-28T17:07:36;6.77;;;3.50;;
77544;SDS011;66672;50.328;7.610;2023-02-28T17:10:02;8.00;;;3.73;;
77544;SDS011;66672;50.328;7.610;2023-02-28T17:12:35;6.87;;;3.27;;
77544;SDS011;66672;50.328;7.610;2023-02-28T17:15:01;7.63;;;3.50;;
77544;SDS011;66672;50.328;7.610;2023-02-28T17:17:26;7.43;;;3.87;;
77544;SDS011;66672;50.328;7.610;2023-02-28T17:19:51;5.77;;;3.63;;
77544;SDS011;66672;50.328;7.610;2023-02-28T17:22:16;5.27;;;2.90;;
77544;SDS011;66672;50.328;7.610;2023-02-28T17:24:42;8.00;;;3.57;;
77544;SDS011;66672;50.328;7.610;2023-02-28T17:27:09;8.10;;;3.37;;
77544;SDS011;66672;50.328;7.610;2023-02-28T17:29:37;6.27;;;3.00;;
77544;SDS011;66672;50.328;7.610;2023-02-28T17:32:02;6.63;;;3.50;;